createdAt,value
2019-04-05T00:00:45.885Z,14.83
2019-04-05T00:05:51.358Z,17.87
2019-04-05T00:10:56.843Z,14.53
2019-04-05T00:16:02.457Z,15.40
2019-04-05T00:21:07.865Z,15.97
2019-04-05T00:26:13.316Z,16.93
2019-04-05T00:31:18.737Z,15.63
2019-04-05T00:36:24.215Z,16.97
2019-04-05T00:41:29.727Z,16.83
2019-04-05T00:46:35.211Z,18.00
2019-04-05T00:51:40.820Z,18.40
2019-04-05T00:56:46.355Z,20.27
2019-04-05T01:01:51.899Z,18.43
2019-04-05T01:06:57.611Z,16.63
2019-04-05T01:12:04.749Z,18.53
2019-04-05T01:17:10.425Z,19.07
2019-04-05T01:22:16.081Z,20.90
2019-04-05T01:27:21.595Z,18.77
2019-04-05T01:32:27.343Z,18.07
2019-04-05T01:37:33.071Z,19.77
2019-04-05T01:42:39.038Z,20.23
2019-04-05T01:47:44.448Z,19.87
2019-04-05T01:52:49.866Z,19.97
2019-04-05T01:57:55.332Z,19.23
2019-04-05T02:03:02.110Z,22.07
2019-04-05T02:08:07.561Z,20.70
2019-04-05T02:13:13.050Z,19.23
2019-04-05T02:18:18.509Z,21.50
2019-04-05T02:23:23.933Z,22.87
2019-04-05T02:28:29.428Z,21.33
2019-04-05T02:33:34.925Z,22.87
2019-04-05T02:38:40.416Z,22.60
2019-04-05T02:43:46.071Z,24.50
2019-04-05T02:48:51.495Z,23.47
2019-04-05T02:53:57.262Z,22.17
2019-04-05T02:59:02.720Z,24.00
2019-04-05T03:04:08.174Z,25.60
2019-04-05T03:09:13.603Z,25.63
2019-04-05T03:14:19.442Z,26.07
2019-04-05T03:19:29.712Z,24.60
2019-04-05T03:24:36.345Z,21.80
2019-04-05T03:29:41.949Z,23.93
2019-04-05T03:34:47.602Z,23.10
2019-04-05T03:39:53.096Z,24.70
2019-04-05T03:44:58.572Z,25.90
2019-04-05T03:50:04.118Z,25.37
2019-04-05T03:55:09.588Z,23.30
2019-04-05T04:00:15.021Z,25.87
2019-04-05T04:05:20.418Z,28.87
2019-04-05T04:10:25.926Z,23.77
2019-04-05T04:15:31.519Z,22.40
2019-04-05T04:20:44.031Z,24.67
2019-04-05T04:25:49.443Z,30.60
2019-04-05T04:30:54.919Z,27.27
2019-04-05T04:36:00.372Z,28.17
2019-04-05T04:41:05.822Z,30.30
2019-04-05T04:46:11.243Z,27.43
2019-04-05T04:51:16.651Z,28.57
2019-04-05T04:56:22.156Z,31.23
2019-04-05T05:01:27.587Z,29.40
2019-04-05T05:06:33.095Z,29.10
2019-04-05T05:11:38.590Z,30.90
2019-04-05T05:16:44.059Z,31.90
2019-04-05T05:21:49.545Z,32.10
2019-04-05T05:26:55.147Z,32.63
2019-04-05T05:32:00.598Z,29.43
2019-04-05T05:37:06.048Z,27.53
2019-04-05T05:42:11.568Z,29.87
2019-04-05T05:47:17.157Z,25.83
2019-04-05T05:52:22.902Z,33.57
2019-04-05T05:57:28.506Z,32.03
2019-04-05T06:02:33.930Z,28.17
2019-04-05T06:07:39.340Z,28.20
2019-04-05T06:12:44.870Z,28.20
2019-04-05T06:17:50.522Z,27.43
2019-04-05T06:22:55.957Z,27.00
2019-04-05T06:28:02.731Z,28.17
2019-04-05T06:33:08.259Z,26.17
2019-04-05T06:38:13.698Z,27.13
2019-04-05T06:43:19.255Z,26.03
2019-04-05T06:48:24.783Z,26.50
2019-04-05T06:53:30.213Z,25.20
2019-04-05T06:58:35.695Z,24.87
2019-04-05T07:03:41.102Z,25.50
2019-04-05T07:08:53.537Z,25.43
2019-04-05T07:13:53.725Z,26.67
2019-04-05T07:18:59.164Z,27.23
2019-04-05T07:24:04.637Z,26.00
2019-04-05T07:29:10.093Z,26.03
2019-04-05T07:34:15.556Z,29.83
2019-04-05T07:39:20.955Z,28.20
2019-04-05T07:44:26.415Z,26.80
2019-04-05T07:49:31.845Z,24.90
2019-04-05T07:54:37.315Z,24.10
2019-04-05T07:59:42.845Z,23.43
2019-04-05T08:04:48.316Z,23.00
2019-04-05T08:09:53.802Z,23.07
2019-04-05T08:14:59.239Z,22.20
2019-04-05T08:20:04.693Z,22.33
2019-04-05T08:25:10.179Z,24.63
2019-04-05T08:30:15.664Z,23.43
2019-04-05T08:35:21.120Z,26.37
2019-04-05T08:40:26.639Z,23.17
2019-04-05T08:45:32.132Z,24.57
2019-04-05T08:50:37.651Z,19.80
2019-04-05T08:55:43.102Z,15.60
2019-04-05T09:00:48.711Z,16.57
2019-04-05T09:05:54.229Z,18.17
2019-04-05T09:10:59.655Z,18.50
2019-04-05T09:16:05.189Z,18.20
2019-04-05T09:21:10.719Z,18.73
2019-04-05T09:26:16.313Z,16.80
2019-04-05T09:31:21.785Z,16.87
2019-04-05T09:36:27.197Z,16.83
2019-04-05T09:41:32.649Z,18.77
2019-04-05T09:46:46.468Z,17.70
2019-04-05T09:51:45.461Z,18.27
2019-04-05T09:56:50.851Z,18.63
2019-04-05T10:01:56.333Z,17.40
2019-04-05T10:07:01.806Z,16.93
2019-04-05T10:12:07.249Z,16.27
2019-04-05T10:17:14.590Z,15.07
2019-04-05T10:22:20.092Z,13.20
2019-04-05T10:27:25.531Z,14.60
2019-04-05T10:32:31.246Z,11.53
2019-04-05T10:37:36.661Z,11.67
2019-04-05T10:42:42.115Z,9.97
2019-04-05T10:47:47.568Z,9.60
2019-04-05T10:52:53.242Z,10.07
2019-04-05T10:57:58.684Z,9.47
2019-04-05T11:03:04.121Z,10.33
2019-04-05T11:08:09.620Z,9.73
2019-04-05T11:13:15.050Z,10.20
2019-04-05T11:18:20.483Z,10.60
2019-04-05T11:23:25.927Z,10.13
2019-04-05T11:28:31.386Z,11.17
2019-04-05T11:33:36.840Z,8.63
2019-04-05T11:38:42.780Z,9.73
2019-04-05T11:43:48.250Z,10.10
2019-04-05T11:48:53.697Z,10.87
2019-04-05T11:53:59.189Z,11.50
2019-04-05T11:59:06.887Z,11.47
2019-04-05T12:04:12.295Z,11.77
2019-04-05T12:09:17.742Z,12.07
2019-04-05T12:14:30.146Z,12.10
2019-04-05T12:19:30.399Z,13.60
2019-04-05T12:24:35.823Z,12.33
2019-04-05T12:29:41.369Z,13.67
2019-04-05T12:34:46.979Z,10.97
2019-04-05T12:39:52.458Z,12.03
2019-04-05T12:44:57.957Z,12.30
2019-04-05T12:50:03.503Z,13.17
2019-04-05T12:55:08.952Z,13.60
2019-04-05T13:00:15.268Z,14.07
2019-04-05T13:05:21.728Z,12.93
2019-04-05T13:10:30.326Z,13.57
2019-04-05T13:15:34.802Z,14.30
2019-04-05T13:20:40.525Z,16.07
2019-04-05T13:25:46.221Z,13.27
2019-04-05T13:30:51.854Z,12.83
2019-04-05T13:35:57.277Z,13.97
2019-04-05T13:41:02.906Z,15.87
2019-04-05T13:46:21.020Z,13.13
2019-04-05T13:51:27.293Z,12.67
2019-04-05T13:56:23.110Z,12.67
2019-04-05T14:01:28.708Z,13.70
2019-04-05T14:06:34.334Z,12.63
2019-04-05T14:11:40.134Z,12.63
2019-04-05T14:16:45.804Z,15.47
2019-04-05T14:21:53.554Z,15.10
2019-04-05T14:26:59.044Z,15.57
2019-04-05T14:32:20.558Z,14.97
2019-04-05T14:37:14.072Z,13.13
2019-04-05T14:42:19.788Z,13.17
2019-04-05T14:47:27.786Z,12.87
2019-04-05T14:52:32.922Z,14.40
2019-04-05T14:57:38.423Z,12.77
2019-04-05T15:02:44.108Z,17.67
2019-04-05T15:07:51.165Z,14.13
2019-04-05T15:13:00.040Z,15.80
2019-04-05T15:18:04.508Z,15.93
2019-04-05T15:23:13.762Z,17.07
2019-04-05T15:28:17.199Z,13.70
2019-04-05T15:33:22.752Z,17.67
2019-04-05T15:38:31.248Z,15.43
2019-04-05T15:43:35.708Z,18.60
2019-04-05T15:48:41.129Z,17.50
2019-04-05T15:53:47.749Z,19.27
2019-04-05T15:58:55.319Z,21.00
2019-04-05T16:04:03.317Z,17.70
2019-04-05T16:09:12.962Z,19.30
2019-04-05T16:14:22.139Z,19.40
2019-04-05T16:19:27.684Z,21.23
2019-04-05T16:24:33.285Z,21.47
2019-04-05T16:29:38.767Z,18.00
2019-04-05T16:34:44.236Z,19.93
2019-04-05T16:39:49.672Z,19.60
2019-04-05T16:44:55.314Z,21.37
2019-04-05T16:50:00.910Z,25.00
2019-04-05T16:55:06.790Z,23.07
2019-04-05T17:00:12.829Z,23.43
2019-04-05T17:05:18.232Z,21.50
2019-04-05T17:10:23.886Z,22.57
2019-04-05T17:15:29.459Z,21.57
2019-04-05T17:20:35.158Z,23.57
2019-04-05T17:25:40.602Z,21.90
2019-04-05T17:30:46.222Z,24.53
2019-04-05T17:35:51.757Z,22.77
2019-04-05T17:40:57.227Z,26.00
2019-04-05T17:46:02.694Z,24.63
2019-04-05T17:51:08.180Z,24.57
2019-04-05T17:56:13.598Z,26.27
2019-04-05T18:01:19.150Z,29.67
2019-04-05T18:06:24.611Z,27.20
2019-04-05T18:11:30.177Z,26.33
2019-04-05T18:16:35.939Z,31.17
2019-04-05T18:21:41.424Z,31.97
2019-04-05T18:26:47.158Z,27.37
2019-04-05T18:31:53.228Z,30.00
2019-04-05T18:36:58.717Z,28.13
2019-04-05T18:42:04.301Z,30.97
2019-04-05T18:47:14.069Z,28.03
2019-04-05T18:52:19.597Z,29.47
2019-04-05T18:57:25.055Z,28.70
2019-04-05T19:02:30.524Z,28.63
2019-04-05T19:07:35.967Z,29.20
2019-04-05T19:12:41.649Z,29.43
2019-04-05T19:17:47.242Z,31.50
2019-04-05T19:22:52.660Z,34.10
2019-04-05T19:27:58.072Z,32.27
2019-04-05T19:53:32.471Z,35.23
2019-04-05T19:58:37.910Z,29.87
2019-04-05T20:03:43.538Z,29.97
2019-04-05T20:08:48.939Z,31.80
2019-04-05T20:13:54.376Z,27.00
2019-04-05T20:18:59.857Z,33.20
2019-04-05T20:24:13.713Z,31.37
2019-04-05T20:29:12.636Z,31.30
2019-04-05T20:34:18.041Z,30.37
2019-04-05T20:39:23.551Z,28.57
2019-04-05T20:44:29.103Z,28.73
2019-04-05T20:49:34.661Z,28.63
2019-04-05T20:54:40.149Z,31.03
2019-04-05T20:59:45.580Z,29.33
2019-04-05T21:04:51.080Z,27.77
2019-04-05T21:09:56.512Z,25.67
2019-04-05T21:15:02.012Z,29.87
2019-04-05T21:20:07.720Z,31.33
2019-04-05T21:25:14.702Z,29.57
2019-04-05T21:30:21.422Z,30.57
2019-04-05T21:35:26.885Z,27.23
2019-04-05T21:40:32.331Z,32.87
2019-04-05T21:45:37.743Z,24.50
2019-04-05T21:50:43.166Z,26.30
2019-04-05T21:55:48.609Z,28.40
2019-04-05T22:01:02.026Z,30.23
2019-04-05T22:06:07.497Z,29.27
2019-04-05T22:11:12.909Z,27.27
2019-04-05T22:16:18.324Z,27.33
2019-04-05T22:21:23.797Z,29.20
2019-04-05T22:26:29.268Z,32.10
2019-04-05T22:31:34.847Z,31.07
2019-04-05T22:36:40.272Z,28.67
2019-04-05T22:41:45.778Z,28.40
2019-04-05T22:46:51.221Z,32.63
2019-04-05T22:51:56.731Z,33.60
2019-04-05T22:57:02.326Z,29.50
2019-04-05T23:02:07.798Z,28.50
2019-04-05T23:07:13.268Z,29.73
2019-04-05T23:12:18.697Z,25.10
2019-04-05T23:17:24.200Z,32.10
2019-04-05T23:22:29.655Z,28.20
2019-04-05T23:27:35.074Z,28.70
2019-04-05T23:32:40.575Z,26.90
2019-04-05T23:37:46.080Z,27.83
2019-04-05T23:42:51.533Z,29.73
2019-04-05T23:47:56.973Z,26.53
2019-04-05T23:53:02.421Z,27.30
2019-04-05T23:58:07.957Z,27.27
